Adams City, Colorado
Current Conditions -  °F | °C
As of 2:53 AM on Sunday 25 Jan 2015 (Local Time) from KDEN Reporting Station
Few Clouds Few Clouds  
Wind Chill: 17°   Ceiling: Unl
Heat Index: 28°   Visibility: 10mi
Dew Point: 25°   Wind: 13mph
Humidity: 88%   Direction: 160°SSE
Pressure: 30.13"   Gusts: NA
Location:  39.8641°N, 104.821°W
Report Text: KDEN 250953Z 16011KT 10SM FEW100 M02/M04 A3013 RMK AO2 SLP194 T10221039
Loading
Personal Weather Stations






























Interactive Weather Map New forecast layout! Learn more

10-Day Weather Forecast

Advertisements
Track Severe Weather on mobile